Hlavní strana
METAR-TAF:

METAR-TAF

Letiště :

Palanga, Litva

zeměpisná šířka: 55-55-12N, zeměpisná délka: 021-03E, výška: 10 m

Aktuální stav počasí

Zpráva byla vytvořena před 33 minutami, v 17:20 UTC
Západoseverozápadní vítr 6 kt, proměnlivý mezi západojihozápadním a severním
Teplota 1°C
Vlhkost vzduchu 69%
Tlak 1009 hPa
Viditelnost 10 km a více
Polojasno ve výšce 2800 ft

METAR: EYPA 181720Z 30006KT 240V350 9999 SCT028 01/M04 Q1009 R01/520295

Čas: 19:53 (17:53 UTC)

Předpověď počasí

Zpráva byla vytvořena před 49 minutami, v 17:04 UTC
Předpověď platná od 18 v 18 UTC do 19 v 18 UTC
Západoseverozápadní vítr 14 kt s nárazy do 24 kt
Viditelnost: 9000 m
Oblačno až skoro zataženo ve výšce 2500 ft
Dočasný
od 18 v 20 UTC do 18 v 24 UTC
Viditelnost: 1500 m
Polojasno ve výšce 500 ft
Oblačno až skoro zataženo ve výšce 1500 ft, Cumulonimbus.
sněhové přeháňky

TAF: EYPA 181704Z 1818/1918 30014G24KT 9000 BKN025 TEMPO 1820/1824 1500 SHSN SCT005 BKN015CB

Stav a předpovědi počasí z více než 4 000 letišť (zprávy METAR a TAF).

Červené a žluté tečky na mapě představují dostupné meteorologické stanice.

Když kurzor umístíte na tečku, zobrazí se název stanice.

Pak kliknutím zobrazíte stav a předpověď počasí.

Chcete-li změnit mapu, kliknutím na zelené tlačítko se znaménkem +mapu přiblížíte, kliknutím na zelené tlačítko se znaménkem – mapu oddálíte a kliknutím na zelené šipky přejdete na sousední mapy.


METAR-TAF: